sensor_id;sensor_type;location;lat;lon;timestamp;temperature;humidity
13652;DHT22;6899;51.546;6.912;2023-11-19T00:01:35;10.00;99.90
13652;DHT22;6899;51.546;6.912;2023-11-19T00:04:02;10.00;99.90
13652;DHT22;6899;51.546;6.912;2023-11-19T00:06:33;10.10;99.90
13652;DHT22;6899;51.546;6.912;2023-11-19T00:09:01;10.10;99.90
13652;DHT22;6899;51.546;6.912;2023-11-19T00:11:29;10.20;99.90
13652;DHT22;6899;51.546;6.912;2023-11-19T00:13:56;10.20;99.90
13652;DHT22;6899;51.546;6.912;2023-11-19T00:16:25;10.30;99.90
13652;DHT22;6899;51.546;6.912;2023-11-19T00:18:52;10.40;99.90
13652;DHT22;6899;51.546;6.912;2023-11-19T00:21:19;10.30;99.90
13652;DHT22;6899;51.546;6.912;2023-11-19T00:23:46;10.40;99.90
13652;DHT22;6899;51.546;6.912;2023-11-19T00:26:13;10.40;99.90
13652;DHT22;6899;51.546;6.912;2023-11-19T00:28:40;10.50;99.90
13652;DHT22;6899;51.546;6.912;2023-11-19T00:31:08;10.50;99.90
13652;DHT22;6899;51.546;6.912;2023-11-19T00:33:37;10.60;99.90
13652;DHT22;6899;51.546;6.912;2023-11-19T00:36:04;10.60;99.90
13652;DHT22;6899;51.546;6.912;2023-11-19T00:38:32;10.60;99.90
13652;DHT22;6899;51.546;6.912;2023-11-19T00:40:59;10.60;99.90
13652;DHT22;6899;51.546;6.912;2023-11-19T00:43:27;10.70;99.90
13652;DHT22;6899;51.546;6.912;2023-11-19T00:45:54;10.70;99.90
13652;DHT22;6899;51.546;6.912;2023-11-19T00:48:21;10.80;99.90
13652;DHT22;6899;51.546;6.912;2023-11-19T00:50:50;10.80;99.90
13652;DHT22;6899;51.546;6.912;2023-11-19T00:53:19;10.90;99.90
13652;DHT22;6899;51.546;6.912;2023-11-19T00:55:46;10.90;99.90
13652;DHT22;6899;51.546;6.912;2023-11-19T00:58:13;10.90;99.90
13652;DHT22;6899;51.546;6.912;2023-11-19T01:00:40;10.90;99.90
13652;DHT22;6899;51.546;6.912;2023-11-19T01:03:08;11.00;99.90
13652;DHT22;6899;51.546;6.912;2023-11-19T01:05:35;11.00;99.90
13652;DHT22;6899;51.546;6.912;2023-11-19T01:08:04;11.00;99.90
13652;DHT22;6899;51.546;6.912;2023-11-19T01:10:32;11.10;99.90
13652;DHT22;6899;51.546;6.912;2023-11-19T01:12:59;11.00;99.90
13652;DHT22;6899;51.546;6.912;2023-11-19T01:15:26;11.10;99.90
13652;DHT22;6899;51.546;6.912;2023-11-19T01:17:53;11.20;99.90
13652;DHT22;6899;51.546;6.912;2023-11-19T01:20:19;11.30;99.90
13652;DHT22;6899;51.546;6.912;2023-11-19T01:22:46;11.20;99.90
13652;DHT22;6899;51.546;6.912;2023-11-19T01:25:15;11.40;99.90
13652;DHT22;6899;51.546;6.912;2023-11-19T01:27:42;11.50;99.90
13652;DHT22;6899;51.546;6.912;2023-11-19T01:30:10;11.40;99.90
13652;DHT22;6899;51.546;6.912;2023-11-19T01:32:38;11.40;99.90
13652;DHT22;6899;51.546;6.912;2023-11-19T01:35:06;11.40;99.90
13652;DHT22;6899;51.546;6.912;2023-11-19T01:37:33;11.50;99.90
13652;DHT22;6899;51.546;6.912;2023-11-19T01:40:01;11.50;99.90
13652;DHT22;6899;51.546;6.912;2023-11-19T01:42:36;11.50;99.90
13652;DHT22;6899;51.546;6.912;2023-11-19T01:45:03;11.50;99.90
13652;DHT22;6899;51.546;6.912;2023-11-19T01:47:33;11.50;99.90
13652;DHT22;6899;51.546;6.912;2023-11-19T01:50:03;11.60;99.90
13652;DHT22;6899;51.546;6.912;2023-11-19T01:52:32;11.60;99.90
13652;DHT22;6899;51.546;6.912;2023-11-19T01:55:02;11.60;99.90
13652;DHT22;6899;51.546;6.912;2023-11-19T01:57:31;11.60;99.90
13652;DHT22;6899;51.546;6.912;2023-11-19T01:59:59;11.60;99.90
13652;DHT22;6899;51.546;6.912;2023-11-19T02:02:26;11.60;99.90
13652;DHT22;6899;51.546;6.912;2023-11-19T02:05:00;11.60;99.90
13652;DHT22;6899;51.546;6.912;2023-11-19T02:07:27;11.70;99.90
13652;DHT22;6899;51.546;6.912;2023-11-19T02:09:54;11.70;99.90
13652;DHT22;6899;51.546;6.912;2023-11-19T02:12:23;11.70;99.90
13652;DHT22;6899;51.546;6.912;2023-11-19T02:14:52;11.70;99.90
13652;DHT22;6899;51.546;6.912;2023-11-19T02:17:25;11.70;99.90
13652;DHT22;6899;51.546;6.912;2023-11-19T02:19:53;11.70;99.90
13652;DHT22;6899;51.546;6.912;2023-11-19T02:22:20;11.70;99.90
13652;DHT22;6899;51.546;6.912;2023-11-19T02:24:50;11.70;99.90
13652;DHT22;6899;51.546;6.912;2023-11-19T02:27:23;11.80;99.90
13652;DHT22;6899;51.546;6.912;2023-11-19T02:29:53;11.70;99.90
13652;DHT22;6899;51.546;6.912;2023-11-19T02:32:20;11.70;99.90
13652;DHT22;6899;51.546;6.912;2023-11-19T02:34:47;11.70;99.90
13652;DHT22;6899;51.546;6.912;2023-11-19T02:37:14;11.70;99.90
13652;DHT22;6899;51.546;6.912;2023-11-19T02:39:41;11.80;99.90
13652;DHT22;6899;51.546;6.912;2023-11-19T02:42:08;11.80;99.90
13652;DHT22;6899;51.546;6.912;2023-11-19T02:44:35;11.70;99.90
13652;DHT22;6899;51.546;6.912;2023-11-19T02:47:05;11.80;99.90
13652;DHT22;6899;51.546;6.912;2023-11-19T02:49:33;11.80;99.90
13652;DHT22;6899;51.546;6.912;2023-11-19T02:52:01;11.80;99.90
13652;DHT22;6899;51.546;6.912;2023-11-19T02:54:28;11.70;99.90
13652;DHT22;6899;51.546;6.912;2023-11-19T02:56:55;11.70;99.90
13652;DHT22;6899;51.546;6.912;2023-11-19T02:59:25;11.70;99.90
13652;DHT22;6899;51.546;6.912;2023-11-19T03:01:58;11.70;99.90
13652;DHT22;6899;51.546;6.912;2023-11-19T03:04:26;11.80;99.90
13652;DHT22;6899;51.546;6.912;2023-11-19T03:06:54;11.80;99.90
13652;DHT22;6899;51.546;6.912;2023-11-19T03:09:21;11.70;99.90
13652;DHT22;6899;51.546;6.912;2023-11-19T03:11:49;11.70;99.90
13652;DHT22;6899;51.546;6.912;2023-11-19T03:14:16;11.70;99.90
13652;DHT22;6899;51.546;6.912;2023-11-19T03:16:45;11.80;99.90
13652;DHT22;6899;51.546;6.912;2023-11-19T03:19:12;11.80;99.90
13652;DHT22;6899;51.546;6.912;2023-11-19T03:21:42;11.80;99.90
13652;DHT22;6899;51.546;6.912;2023-11-19T03:24:10;11.80;99.90
13652;DHT22;6899;51.546;6.912;2023-11-19T03:26:39;11.80;99.90
13652;DHT22;6899;51.546;6.912;2023-11-19T03:29:08;11.80;99.90
13652;DHT22;6899;51.546;6.912;2023-11-19T03:31:36;11.80;99.90
13652;DHT22;6899;51.546;6.912;2023-11-19T03:34:03;11.80;99.90
13652;DHT22;6899;51.546;6.912;2023-11-19T03:36:33;11.80;99.90
13652;DHT22;6899;51.546;6.912;2023-11-19T03:39:02;11.60;99.90
13652;DHT22;6899;51.546;6.912;2023-11-19T03:41:30;11.60;99.90
13652;DHT22;6899;51.546;6.912;2023-11-19T03:43:57;11.50;99.90
13652;DHT22;6899;51.546;6.912;2023-11-19T03:46:24;11.40;99.90
13652;DHT22;6899;51.546;6.912;2023-11-19T03:48:51;11.40;99.90
13652;DHT22;6899;51.546;6.912;2023-11-19T03:51:18;11.30;99.90
13652;DHT22;6899;51.546;6.912;2023-11-19T03:53:45;11.30;99.90
13652;DHT22;6899;51.546;6.912;2023-11-19T03:56:14;11.30;99.90
13652;DHT22;6899;51.546;6.912;2023-11-19T03:58:41;11.30;99.90
13652;DHT22;6899;51.546;6.912;2023-11-19T04:01:11;11.30;99.90
13652;DHT22;6899;51.546;6.912;2023-11-19T04:03:39;11.40;99.90
13652;DHT22;6899;51.546;6.912;2023-11-19T04:06:06;11.30;99.90
13652;DHT22;6899;51.546;6.912;2023-11-19T04:08:33;11.30;99.90
13652;DHT22;6899;51.546;6.912;2023-11-19T04:11:00;11.20;99.90
13652;DHT22;6899;51.546;6.912;2023-11-19T04:13:29;11.00;99.90
13652;DHT22;6899;51.546;6.912;2023-11-19T04:15:56;11.00;99.90
13652;DHT22;6899;51.546;6.912;2023-11-19T04:18:23;10.90;99.90
13652;DHT22;6899;51.546;6.912;2023-11-19T04:20:50;10.80;99.90
13652;DHT22;6899;51.546;6.912;2023-11-19T04:23:19;10.70;99.90
13652;DHT22;6899;51.546;6.912;2023-11-19T04:25:46;10.60;99.90
13652;DHT22;6899;51.546;6.912;2023-11-19T04:28:13;10.70;99.90
13652;DHT22;6899;51.546;6.912;2023-11-19T04:30:42;10.50;99.90
13652;DHT22;6899;51.546;6.912;2023-11-19T04:33:10;10.40;99.90
13652;DHT22;6899;51.546;6.912;2023-11-19T04:35:37;10.30;99.90
13652;DHT22;6899;51.546;6.912;2023-11-19T04:38:04;10.40;99.90
13652;DHT22;6899;51.546;6.912;2023-11-19T04:40:31;10.30;99.90
13652;DHT22;6899;51.546;6.912;2023-11-19T04:42:59;10.40;99.90
13652;DHT22;6899;51.546;6.912;2023-11-19T04:45:26;10.50;99.90
13652;DHT22;6899;51.546;6.912;2023-11-19T04:47:54;10.50;99.90
13652;DHT22;6899;51.546;6.912;2023-11-19T04:50:21;10.50;99.90
13652;DHT22;6899;51.546;6.912;2023-11-19T04:52:47;10.50;99.90
13652;DHT22;6899;51.546;6.912;2023-11-19T04:55:14;10.40;99.90
13652;DHT22;6899;51.546;6.912;2023-11-19T04:57:41;10.40;99.90
13652;DHT22;6899;51.546;6.912;2023-11-19T05:00:09;10.50;99.90
13652;DHT22;6899;51.546;6.912;2023-11-19T05:02:36;10.60;99.90
13652;DHT22;6899;51.546;6.912;2023-11-19T05:05:05;10.70;99.90
13652;DHT22;6899;51.546;6.912;2023-11-19T05:07:32;10.80;99.90
13652;DHT22;6899;51.546;6.912;2023-11-19T05:09:59;10.80;99.90
13652;DHT22;6899;51.546;6.912;2023-11-19T05:12:26;10.80;99.90
13652;DHT22;6899;51.546;6.912;2023-11-19T05:14:53;11.00;99.90
13652;DHT22;6899;51.546;6.912;2023-11-19T05:17:20;11.00;99.90
13652;DHT22;6899;51.546;6.912;2023-11-19T05:19:46;11.00;99.90
13652;DHT22;6899;51.546;6.912;2023-11-19T05:22:16;11.00;99.90
13652;DHT22;6899;51.546;6.912;2023-11-19T05:24:43;10.90;99.90
13652;DHT22;6899;51.546;6.912;2023-11-19T05:27:10;10.90;99.90
13652;DHT22;6899;51.546;6.912;2023-11-19T05:29:39;10.90;99.90
13652;DHT22;6899;51.546;6.912;2023-11-19T05:32:06;11.10;99.90
13652;DHT22;6899;51.546;6.912;2023-11-19T05:34:33;11.10;99.90
13652;DHT22;6899;51.546;6.912;2023-11-19T05:37:00;11.00;99.90
13652;DHT22;6899;51.546;6.912;2023-11-19T05:39:29;10.90;99.90
13652;DHT22;6899;51.546;6.912;2023-11-19T05:41:56;10.90;99.90
13652;DHT22;6899;51.546;6.912;2023-11-19T05:44:23;10.90;99.90
13652;DHT22;6899;51.546;6.912;2023-11-19T05:46:49;10.80;99.90
13652;DHT22;6899;51.546;6.912;2023-11-19T05:49:16;10.80;99.90
13652;DHT22;6899;51.546;6.912;2023-11-19T05:51:43;10.70;99.90
13652;DHT22;6899;51.546;6.912;2023-11-19T05:54:11;10.60;99.90
13652;DHT22;6899;51.546;6.912;2023-11-19T05:56:40;10.70;99.90
13652;DHT22;6899;51.546;6.912;2023-11-19T05:59:07;10.60;99.90
13652;DHT22;6899;51.546;6.912;2023-11-19T06:01:40;10.70;99.90
13652;DHT22;6899;51.546;6.912;2023-11-19T06:04:08;10.60;99.90
13652;DHT22;6899;51.546;6.912;2023-11-19T06:06:34;10.50;99.90
13652;DHT22;6899;51.546;6.912;2023-11-19T06:09:00;10.50;99.90
13652;DHT22;6899;51.546;6.912;2023-11-19T06:11:32;10.60;99.90
13652;DHT22;6899;51.546;6.912;2023-11-19T06:14:00;10.50;99.90
13652;DHT22;6899;51.546;6.912;2023-11-19T06:16:27;10.50;99.90
13652;DHT22;6899;51.546;6.912;2023-11-19T06:18:54;10.30;99.90
13652;DHT22;6899;51.546;6.912;2023-11-19T06:21:21;10.40;99.90
13652;DHT22;6899;51.546;6.912;2023-11-19T06:23:48;10.30;99.90
13652;DHT22;6899;51.546;6.912;2023-11-19T06:26:17;10.30;99.90
13652;DHT22;6899;51.546;6.912;2023-11-19T06:28:44;10.20;99.90
13652;DHT22;6899;51.546;6.912;2023-11-19T06:31:13;10.00;99.90
13652;DHT22;6899;51.546;6.912;2023-11-19T06:33:41;10.00;99.90
13652;DHT22;6899;51.546;6.912;2023-11-19T06:36:08;10.00;99.90
13652;DHT22;6899;51.546;6.912;2023-11-19T06:38:35;10.00;99.90
13652;DHT22;6899;51.546;6.912;2023-11-19T06:41:07;10.00;99.90
13652;DHT22;6899;51.546;6.912;2023-11-19T06:43:34;10.10;99.90
13652;DHT22;6899;51.546;6.912;2023-11-19T06:46:00;10.20;99.90
13652;DHT22;6899;51.546;6.912;2023-11-19T06:48:29;10.30;99.90
13652;DHT22;6899;51.546;6.912;2023-11-19T06:50:56;10.40;99.90
13652;DHT22;6899;51.546;6.912;2023-11-19T06:53:23;10.40;99.90
13652;DHT22;6899;51.546;6.912;2023-11-19T06:55:50;10.40;99.90
13652;DHT22;6899;51.546;6.912;2023-11-19T06:58:17;10.50;99.90
13652;DHT22;6899;51.546;6.912;2023-11-19T07:00:44;10.50;99.90
13652;DHT22;6899;51.546;6.912;2023-11-19T07:03:12;10.40;99.90
13652;DHT22;6899;51.546;6.912;2023-11-19T07:05:41;10.40;99.90
13652;DHT22;6899;51.546;6.912;2023-11-19T07:08:09;10.30;99.90
13652;DHT22;6899;51.546;6.912;2023-11-19T07:10:36;10.40;99.90
13652;DHT22;6899;51.546;6.912;2023-11-19T07:13:04;10.30;99.90
13652;DHT22;6899;51.546;6.912;2023-11-19T07:15:31;10.20;99.90
13652;DHT22;6899;51.546;6.912;2023-11-19T07:17:59;10.20;99.90
13652;DHT22;6899;51.546;6.912;2023-11-19T07:20:25;10.20;99.90
13652;DHT22;6899;51.546;6.912;2023-11-19T07:22:54;10.20;99.90
13652;DHT22;6899;51.546;6.912;2023-11-19T07:25:22;10.20;99.90
13652;DHT22;6899;51.546;6.912;2023-11-19T07:27:49;10.30;99.90
13652;DHT22;6899;51.546;6.912;2023-11-19T07:30:17;10.30;99.90
13652;DHT22;6899;51.546;6.912;2023-11-19T07:32:44;10.20;99.90
13652;DHT22;6899;51.546;6.912;2023-11-19T07:35:11;10.20;99.90
13652;DHT22;6899;51.546;6.912;2023-11-19T07:37:38;10.20;99.90
13652;DHT22;6899;51.546;6.912;2023-11-19T07:40:08;10.20;99.90
13652;DHT22;6899;51.546;6.912;2023-11-19T07:42:36;10.20;99.90
13652;DHT22;6899;51.546;6.912;2023-11-19T07:45:04;10.20;99.90
13652;DHT22;6899;51.546;6.912;2023-11-19T07:47:31;10.20;99.90
13652;DHT22;6899;51.546;6.912;2023-11-19T07:49:58;10.20;99.90
13652;DHT22;6899;51.546;6.912;2023-11-19T07:52:25;10.10;99.90
13652;DHT22;6899;51.546;6.912;2023-11-19T07:54:52;10.10;99.90
13652;DHT22;6899;51.546;6.912;2023-11-19T07:57:20;10.10;99.90
13652;DHT22;6899;51.546;6.912;2023-11-19T07:59:49;10.20;99.90
13652;DHT22;6899;51.546;6.912;2023-11-19T08:02:16;10.30;99.90
13652;DHT22;6899;51.546;6.912;2023-11-19T08:04:44;10.40;99.90
13652;DHT22;6899;51.546;6.912;2023-11-19T08:07:11;10.40;99.90
13652;DHT22;6899;51.546;6.912;2023-11-19T08:09:38;10.40;99.90
13652;DHT22;6899;51.546;6.912;2023-11-19T08:12:06;10.50;99.90
13652;DHT22;6899;51.546;6.912;2023-11-19T08:14:35;10.40;99.90
13652;DHT22;6899;51.546;6.912;2023-11-19T08:17:02;10.40;99.90
13652;DHT22;6899;51.546;6.912;2023-11-19T08:19:30;10.50;99.90
13652;DHT22;6899;51.546;6.912;2023-11-19T08:21:57;10.60;99.90
13652;DHT22;6899;51.546;6.912;2023-11-19T08:24:23;10.70;99.90
13652;DHT22;6899;51.546;6.912;2023-11-19T08:26:50;10.80;99.90
13652;DHT22;6899;51.546;6.912;2023-11-19T08:29:17;11.00;99.90
13652;DHT22;6899;51.546;6.912;2023-11-19T08:31:45;11.10;99.90
13652;DHT22;6899;51.546;6.912;2023-11-19T08:34:12;11.10;99.90
13652;DHT22;6899;51.546;6.912;2023-11-19T08:36:39;11.20;99.90
13652;DHT22;6899;51.546;6.912;2023-11-19T08:39:06;11.10;99.90
13652;DHT22;6899;51.546;6.912;2023-11-19T08:41:34;11.00;99.90
13652;DHT22;6899;51.546;6.912;2023-11-19T08:44:01;10.90;99.90
13652;DHT22;6899;51.546;6.912;2023-11-19T08:46:27;10.90;99.90
13652;DHT22;6899;51.546;6.912;2023-11-19T08:48:55;11.00;99.90
13652;DHT22;6899;51.546;6.912;2023-11-19T08:51:23;11.10;99.90
13652;DHT22;6899;51.546;6.912;2023-11-19T08:53:50;11.20;99.90
13652;DHT22;6899;51.546;6.912;2023-11-19T08:56:17;11.20;99.90
13652;DHT22;6899;51.546;6.912;2023-11-19T08:58:44;11.30;99.90
13652;DHT22;6899;51.546;6.912;2023-11-19T09:01:10;11.50;99.90
13652;DHT22;6899;51.546;6.912;2023-11-19T09:03:38;11.70;99.90
13652;DHT22;6899;51.546;6.912;2023-11-19T09:06:07;11.90;99.90
13652;DHT22;6899;51.546;6.912;2023-11-19T09:08:34;11.90;99.90
13652;DHT22;6899;51.546;6.912;2023-11-19T09:11:01;12.00;99.90
13652;DHT22;6899;51.546;6.912;2023-11-19T09:13:33;11.90;99.90
13652;DHT22;6899;51.546;6.912;2023-11-19T09:16:00;12.00;99.90
13652;DHT22;6899;51.546;6.912;2023-11-19T09:18:41;12.10;99.90
13652;DHT22;6899;51.546;6.912;2023-11-19T09:21:12;12.10;99.90
13652;DHT22;6899;51.546;6.912;2023-11-19T09:23:39;12.10;99.90
13652;DHT22;6899;51.546;6.912;2023-11-19T09:26:08;12.20;99.90
13652;DHT22;6899;51.546;6.912;2023-11-19T09:28:35;12.20;99.90
13652;DHT22;6899;51.546;6.912;2023-11-19T09:31:02;12.30;99.90
13652;DHT22;6899;51.546;6.912;2023-11-19T09:33:30;12.30;99.90
13652;DHT22;6899;51.546;6.912;2023-11-19T09:35:57;12.20;99.90
13652;DHT22;6899;51.546;6.912;2023-11-19T09:38:25;12.20;99.90
13652;DHT22;6899;51.546;6.912;2023-11-19T09:40:52;12.10;99.90
13652;DHT22;6899;51.546;6.912;2023-11-19T09:43:19;12.10;99.90
13652;DHT22;6899;51.546;6.912;2023-11-19T09:45:48;12.10;99.90
13652;DHT22;6899;51.546;6.912;2023-11-19T09:48:17;12.20;99.90
13652;DHT22;6899;51.546;6.912;2023-11-19T09:50:45;12.20;99.90
13652;DHT22;6899;51.546;6.912;2023-11-19T09:53:16;12.30;99.90
13652;DHT22;6899;51.546;6.912;2023-11-19T09:55:45;12.30;99.90
13652;DHT22;6899;51.546;6.912;2023-11-19T09:58:12;12.40;99.90
13652;DHT22;6899;51.546;6.912;2023-11-19T10:00:40;12.50;99.90
13652;DHT22;6899;51.546;6.912;2023-11-19T10:03:07;12.60;99.90
13652;DHT22;6899;51.546;6.912;2023-11-19T10:05:36;12.70;99.90
13652;DHT22;6899;51.546;6.912;2023-11-19T10:08:04;12.90;99.90
13652;DHT22;6899;51.546;6.912;2023-11-19T10:10:31;13.10;99.90
13652;DHT22;6899;51.546;6.912;2023-11-19T10:13:00;12.90;99.90
13652;DHT22;6899;51.546;6.912;2023-11-19T10:15:27;12.80;99.90
13652;DHT22;6899;51.546;6.912;2023-11-19T10:17:55;12.80;99.90
13652;DHT22;6899;51.546;6.912;2023-11-19T10:20:22;12.80;99.90
13652;DHT22;6899;51.546;6.912;2023-11-19T10:22:52;12.80;99.90
13652;DHT22;6899;51.546;6.912;2023-11-19T10:25:23;12.80;99.90
13652;DHT22;6899;51.546;6.912;2023-11-19T10:27:50;12.90;99.90
13652;DHT22;6899;51.546;6.912;2023-11-19T10:30:20;13.00;99.90
13652;DHT22;6899;51.546;6.912;2023-11-19T10:33:03;13.10;99.90
13652;DHT22;6899;51.546;6.912;2023-11-19T10:35:31;13.10;99.90
13652;DHT22;6899;51.546;6.912;2023-11-19T10:38:00;13.00;99.90
13652;DHT22;6899;51.546;6.912;2023-11-19T10:40:37;12.90;99.90
13652;DHT22;6899;51.546;6.912;2023-11-19T10:43:05;12.80;99.90
13652;DHT22;6899;51.546;6.912;2023-11-19T10:45:34;13.20;99.90
13652;DHT22;6899;51.546;6.912;2023-11-19T10:48:02;13.10;99.90
13652;DHT22;6899;51.546;6.912;2023-11-19T10:50:32;13.20;99.90
13652;DHT22;6899;51.546;6.912;2023-11-19T10:52:59;13.20;99.90
13652;DHT22;6899;51.546;6.912;2023-11-19T10:55:28;13.40;99.90
13652;DHT22;6899;51.546;6.912;2023-11-19T10:57:59;13.50;99.90
13652;DHT22;6899;51.546;6.912;2023-11-19T11:00:28;13.40;99.90
13652;DHT22;6899;51.546;6.912;2023-11-19T11:03:01;13.40;99.90
13652;DHT22;6899;51.546;6.912;2023-11-19T11:05:32;13.30;99.90
13652;DHT22;6899;51.546;6.912;2023-11-19T11:08:00;13.20;99.90
13652;DHT22;6899;51.546;6.912;2023-11-19T11:10:32;13.10;99.90
13652;DHT22;6899;51.546;6.912;2023-11-19T11:13:03;13.00;99.90
13652;DHT22;6899;51.546;6.912;2023-11-19T11:15:30;12.90;99.90
13652;DHT22;6899;51.546;6.912;2023-11-19T11:18:01;12.90;99.90
13652;DHT22;6899;51.546;6.912;2023-11-19T11:20:30;12.90;99.90
13652;DHT22;6899;51.546;6.912;2023-11-19T11:23:12;12.90;99.90
13652;DHT22;6899;51.546;6.912;2023-11-19T11:25:52;12.90;99.90
13652;DHT22;6899;51.546;6.912;2023-11-19T11:28:34;13.00;99.90
13652;DHT22;6899;51.546;6.912;2023-11-19T11:31:16;13.10;99.90
13652;DHT22;6899;51.546;6.912;2023-11-19T11:34:09;13.10;99.90
13652;DHT22;6899;51.546;6.912;2023-11-19T11:36:47;13.20;99.90
13652;DHT22;6899;51.546;6.912;2023-11-19T11:39:16;13.40;99.90
13652;DHT22;6899;51.546;6.912;2023-11-19T11:41:44;13.40;99.90
13652;DHT22;6899;51.546;6.912;2023-11-19T11:44:11;13.50;99.90
13652;DHT22;6899;51.546;6.912;2023-11-19T11:46:56;13.60;99.90
13652;DHT22;6899;51.546;6.912;2023-11-19T11:49:27;13.60;99.90
13652;DHT22;6899;51.546;6.912;2023-11-19T11:52:02;13.60;99.90
13652;DHT22;6899;51.546;6.912;2023-11-19T11:54:32;13.40;99.90
13652;DHT22;6899;51.546;6.912;2023-11-19T11:57:10;13.50;99.90
13652;DHT22;6899;51.546;6.912;2023-11-19T11:59:47;13.50;99.90
13652;DHT22;6899;51.546;6.912;2023-11-19T12:02:16;13.60;99.90
13652;DHT22;6899;51.546;6.912;2023-11-19T12:04:49;13.90;99.90
13652;DHT22;6899;51.546;6.912;2023-11-19T12:07:19;14.00;99.90
13652;DHT22;6899;51.546;6.912;2023-11-19T12:09:48;14.00;99.90
13652;DHT22;6899;51.546;6.912;2023-11-19T12:12:22;13.90;99.90
13652;DHT22;6899;51.546;6.912;2023-11-19T12:15:03;13.70;99.90
13652;DHT22;6899;51.546;6.912;2023-11-19T12:17:41;13.60;99.90
13652;DHT22;6899;51.546;6.912;2023-11-19T12:20:11;13.50;99.90
13652;DHT22;6899;51.546;6.912;2023-11-19T12:22:39;13.50;99.90
13652;DHT22;6899;51.546;6.912;2023-11-19T12:25:07;13.40;99.90
13652;DHT22;6899;51.546;6.912;2023-11-19T12:27:34;13.50;99.90
13652;DHT22;6899;51.546;6.912;2023-11-19T12:30:07;13.50;99.90
13652;DHT22;6899;51.546;6.912;2023-11-19T12:32:41;13.50;99.90
13652;DHT22;6899;51.546;6.912;2023-11-19T12:35:08;13.60;99.90
13652;DHT22;6899;51.546;6.912;2023-11-19T12:37:51;13.60;99.90
13652;DHT22;6899;51.546;6.912;2023-11-19T12:40:23;13.50;99.90
13652;DHT22;6899;51.546;6.912;2023-11-19T12:42:51;13.20;99.90
13652;DHT22;6899;51.546;6.912;2023-11-19T12:45:18;12.70;99.90
13652;DHT22;6899;51.546;6.912;2023-11-19T12:47:47;12.20;99.90
13652;DHT22;6899;51.546;6.912;2023-11-19T12:50:15;11.90;99.90
13652;DHT22;6899;51.546;6.912;2023-11-19T12:52:55;11.70;99.90
13652;DHT22;6899;51.546;6.912;2023-11-19T12:55:26;11.50;99.90
13652;DHT22;6899;51.546;6.912;2023-11-19T12:57:53;11.50;99.90
13652;DHT22;6899;51.546;6.912;2023-11-19T13:00:21;11.60;99.90
13652;DHT22;6899;51.546;6.912;2023-11-19T13:02:49;11.70;99.90
13652;DHT22;6899;51.546;6.912;2023-11-19T13:05:27;11.80;99.90
13652;DHT22;6899;51.546;6.912;2023-11-19T13:08:05;12.00;99.90
13652;DHT22;6899;51.546;6.912;2023-11-19T13:10:33;12.20;99.90
13652;DHT22;6899;51.546;6.912;2023-11-19T13:13:05;12.30;99.90
13652;DHT22;6899;51.546;6.912;2023-11-19T13:15:32;12.30;99.90
13652;DHT22;6899;51.546;6.912;2023-11-19T13:18:00;12.30;99.90
13652;DHT22;6899;51.546;6.912;2023-11-19T13:20:27;12.20;99.90
13652;DHT22;6899;51.546;6.912;2023-11-19T13:22:59;12.10;99.90
13652;DHT22;6899;51.546;6.912;2023-11-19T13:25:29;12.10;99.90
13652;DHT22;6899;51.546;6.912;2023-11-19T13:28:13;12.10;99.90
13652;DHT22;6899;51.546;6.912;2023-11-19T13:30:41;12.10;99.90
13652;DHT22;6899;51.546;6.912;2023-11-19T13:33:07;12.30;99.90
13652;DHT22;6899;51.546;6.912;2023-11-19T13:35:37;12.40;99.90
13652;DHT22;6899;51.546;6.912;2023-11-19T13:38:05;12.60;99.90
13652;DHT22;6899;51.546;6.912;2023-11-19T13:40:38;12.50;99.90
13652;DHT22;6899;51.546;6.912;2023-11-19T13:43:05;12.40;99.90
13652;DHT22;6899;51.546;6.912;2023-11-19T13:45:33;12.50;99.90
13652;DHT22;6899;51.546;6.912;2023-11-19T13:48:00;12.60;99.90
13652;DHT22;6899;51.546;6.912;2023-11-19T13:50:26;12.70;99.90
13652;DHT22;6899;51.546;6.912;2023-11-19T13:52:54;12.80;99.90
13652;DHT22;6899;51.546;6.912;2023-11-19T13:55:21;13.00;99.90
13652;DHT22;6899;51.546;6.912;2023-11-19T13:57:49;13.00;99.90
13652;DHT22;6899;51.546;6.912;2023-11-19T14:00:17;12.90;99.90
13652;DHT22;6899;51.546;6.912;2023-11-19T14:02:45;12.70;99.90
13652;DHT22;6899;51.546;6.912;2023-11-19T14:05:13;12.50;99.90
13652;DHT22;6899;51.546;6.912;2023-11-19T14:07:41;12.30;99.90
13652;DHT22;6899;51.546;6.912;2023-11-19T14:10:08;12.20;99.90
13652;DHT22;6899;51.546;6.912;2023-11-19T14:12:36;12.10;99.90
13652;DHT22;6899;51.546;6.912;2023-11-19T14:15:05;12.10;99.90
13652;DHT22;6899;51.546;6.912;2023-11-19T14:17:32;12.10;99.90
13652;DHT22;6899;51.546;6.912;2023-11-19T14:20:00;12.10;99.90
13652;DHT22;6899;51.546;6.912;2023-11-19T14:22:28;12.00;99.90
13652;DHT22;6899;51.546;6.912;2023-11-19T14:24:56;11.90;99.90
13652;DHT22;6899;51.546;6.912;2023-11-19T14:27:22;11.70;99.90
13652;DHT22;6899;51.546;6.912;2023-11-19T14:29:52;11.40;99.90
13652;DHT22;6899;51.546;6.912;2023-11-19T14:32:20;11.30;99.90
13652;DHT22;6899;51.546;6.912;2023-11-19T14:34:47;11.20;99.90
13652;DHT22;6899;51.546;6.912;2023-11-19T14:37:14;11.30;99.90
13652;DHT22;6899;51.546;6.912;2023-11-19T14:39:41;11.30;99.90
13652;DHT22;6899;51.546;6.912;2023-11-19T14:42:09;11.20;99.90
13652;DHT22;6899;51.546;6.912;2023-11-19T14:44:36;11.10;99.90
13652;DHT22;6899;51.546;6.912;2023-11-19T14:47:03;10.90;99.90
13652;DHT22;6899;51.546;6.912;2023-11-19T14:49:32;10.90;99.90
13652;DHT22;6899;51.546;6.912;2023-11-19T14:52:01;10.90;99.90
13652;DHT22;6899;51.546;6.912;2023-11-19T14:54:28;10.80;99.90
13652;DHT22;6899;51.546;6.912;2023-11-19T14:56:56;10.70;99.90
13652;DHT22;6899;51.546;6.912;2023-11-19T14:59:24;10.60;99.90
13652;DHT22;6899;51.546;6.912;2023-11-19T15:01:51;10.50;99.90
13652;DHT22;6899;51.546;6.912;2023-11-19T15:04:18;10.50;99.90
13652;DHT22;6899;51.546;6.912;2023-11-19T15:06:47;10.40;99.90
13652;DHT22;6899;51.546;6.912;2023-11-19T15:09:14;10.30;99.90
13652;DHT22;6899;51.546;6.912;2023-11-19T15:11:43;10.30;99.90
13652;DHT22;6899;51.546;6.912;2023-11-19T15:14:11;10.40;99.90
13652;DHT22;6899;51.546;6.912;2023-11-19T15:16:40;10.40;99.90
13652;DHT22;6899;51.546;6.912;2023-11-19T15:19:07;10.50;99.90
13652;DHT22;6899;51.546;6.912;2023-11-19T15:21:34;10.50;99.90
13652;DHT22;6899;51.546;6.912;2023-11-19T15:24:03;10.40;99.90
13652;DHT22;6899;51.546;6.912;2023-11-19T15:26:33;10.50;99.90
13652;DHT22;6899;51.546;6.912;2023-11-19T15:29:00;10.50;99.90
13652;DHT22;6899;51.546;6.912;2023-11-19T15:31:28;10.60;99.90
13652;DHT22;6899;51.546;6.912;2023-11-19T15:33:55;10.60;99.90
13652;DHT22;6899;51.546;6.912;2023-11-19T15:36:21;10.60;99.90
13652;DHT22;6899;51.546;6.912;2023-11-19T15:38:48;10.60;99.90
13652;DHT22;6899;51.546;6.912;2023-11-19T15:41:17;10.40;99.90
13652;DHT22;6899;51.546;6.912;2023-11-19T15:43:44;10.30;99.90
13652;DHT22;6899;51.546;6.912;2023-11-19T15:46:11;10.20;99.90
13652;DHT22;6899;51.546;6.912;2023-11-19T15:48:38;10.20;99.90
13652;DHT22;6899;51.546;6.912;2023-11-19T15:51:05;10.10;99.90
13652;DHT22;6899;51.546;6.912;2023-11-19T15:53:33;10.20;99.90